Ebbco — WCP3976 — position and weather

sailwx.info

Track history (hours):
 
Tides and Currents Weather Stations Pressure Air Temp Water Temp Dewpoint Dewpoint Depression Visibility Wind Speed Wind Dir Waves Ship Positions

Ebbco

Owner: EVERINGHAM BROS BAIT CO, La Mesa, CA. More information available from US FCC via Universal Licensing System.

Last reported at 2017-Oct-15 17:34 UTC. Time now 2017-Oct-17 11:29 UTC.
Position N 32°42' W 117°14'.

Length 34 m.

Type: Fishing. MMSI: 367378380.

Date/timePositionNaut miles runAvg speedWind from/ knotsBaromVisibWave heightAir tempDewpointWater temp
2017-Oct-15 17:34N 32°42' W 117°14'0 0.3
2017-Oct-15 17:22N 32°42' W 117°14'0 0.0
2017-Oct-15 16:02N 32°42' W 117°14'0 2.2
2017-Oct-15 15:58N 32°42' W 117°14'7 2.4
2017-Oct-15 12:55N 32°36' W 117°09'2 2.7
2017-Oct-15 12:20N 32°37' W 117°10'1 3.5
2017-Oct-15 11:56N 32°38' W 117°09'2 4.6
2017-Oct-15 11:24N 32°40' W 117°12'2 4.1
2017-Oct-15 10:59N 32°41' W 117°14'2 0.1
2017-Oct-14 18:54N 32°43' W 117°13'2 0.8
2017-Oct-14 17:03N 32°42' W 117°14'0 0.2
2017-Oct-14 17:00N 32°42' W 117°14'3 0.5
2017-Oct-14 11:34N 32°39' W 117°12'0 1.4
2017-Oct-14 11:18N 32°40' W 117°12'2 6.0
2017-Oct-14 10:54N 32°42' W 117°14'1 0.0
2017-Oct-12 16:42N 32°43' W 117°13'2 4.0
2017-Oct-12 16:15N 32°41' W 117°14'2 6.0
2017-Oct-12 15:54N 32°39' W 117°15'3 7.7
2017-Oct-12 15:29N 32°42' W 117°17'3 7.1
2017-Oct-12 15:00N 32°45' W 117°16'1 0.9
2017-Oct-12 13:45N 32°46' W 117°14'1 5.2
2017-Oct-12 13:30N 32°45' W 117°16'7 6.6
2017-Oct-12 12:29N 32°39' W 117°14'2 1.4
2017-Oct-12 11:19N 32°39' W 117°13'1 2.2
2017-Oct-12 11:00N 32°39' W 117°13'3 6.9
2017-Oct-12 10:30N 32°43' W 117°13'  
2017-Oct-09 16:51N 32°40' W 117°14'2 5.7
2017-Oct-09 16:29N 32°41' W 117°16'4 7.5
2017-Oct-09 16:00N 32°44' W 117°16'2 2.6
2017-Oct-09 15:09N 32°46' W 117°14'0 0.2
2017-Oct-09 14:54N 32°46' W 117°14'3 5.9
2017-Oct-09 14:19N 32°43' W 117°17'5 7.1
2017-Oct-09 13:38N 32°39' W 117°14'2 0.8
2017-Oct-09 11:26N 32°38' W 117°12'3 6.5
2017-Oct-09 11:00N 32°40' W 117°14'2 0.0
2017-Oct-07 15:42N 32°40' W 117°16'2 0.8
2017-Oct-07 12:37N 32°39' W 117°14'1 7.7
2017-Oct-07 12:29N 32°39' W 117°13'1 0.3
2017-Oct-07 11:00N 32°39' W 117°12'3 6.5
2017-Oct-07 10:29N 32°42' W 117°13'  
Track history (hours):
 
Tides and Currents Weather Stations Pressure Air Temp Water Temp Dewpoint Dewpoint Depression Visibility Wind Speed Wind Dir Waves Ship Positions

Ebbco

Owner: EVERINGHAM BROS BAIT CO, La Mesa, CA. More information available from US FCC via Universal Licensing System.

Last reported at 2017-Oct-15 17:34 UTC. Time now 2017-Oct-17 11:29 UTC.
Position N 32°42' W 117°14'.

Length 34 m.

Type: Fishing. MMSI: 367378380.

Date/timePositionNaut miles runAvg speedWind from/ knotsBaromVisibWave heightAir tempDewpointWater temp
2017-Oct-15 17:34N 32°42' W 117°14'0 0.3
2017-Oct-15 17:22N 32°42' W 117°14'0 0.0
2017-Oct-15 16:02N 32°42' W 117°14'0 2.2
2017-Oct-15 15:58N 32°42' W 117°14'7 2.4
2017-Oct-15 12:55N 32°36' W 117°09'2 2.7
2017-Oct-15 12:20N 32°37' W 117°10'1 3.5
2017-Oct-15 11:56N 32°38' W 117°09'2 4.6
2017-Oct-15 11:24N 32°40' W 117°12'2 4.1
2017-Oct-15 10:59N 32°41' W 117°14'2 0.1
2017-Oct-14 18:54N 32°43' W 117°13'2 0.8
2017-Oct-14 17:03N 32°42' W 117°14'0 0.2
2017-Oct-14 17:00N 32°42' W 117°14'3 0.5
2017-Oct-14 11:34N 32°39' W 117°12'0 1.4
2017-Oct-14 11:18N 32°40' W 117°12'2 6.0
2017-Oct-14 10:54N 32°42' W 117°14'1 0.0
2017-Oct-12 16:42N 32°43' W 117°13'2 4.0
2017-Oct-12 16:15N 32°41' W 117°14'2 6.0
2017-Oct-12 15:54N 32°39' W 117°15'3 7.7
2017-Oct-12 15:29N 32°42' W 117°17'3 7.1
2017-Oct-12 15:00N 32°45' W 117°16'1 0.9
2017-Oct-12 13:45N 32°46' W 117°14'1 5.2
2017-Oct-12 13:30N 32°45' W 117°16'7 6.6
2017-Oct-12 12:29N 32°39' W 117°14'2 1.4
2017-Oct-12 11:19N 32°39' W 117°13'1 2.2
2017-Oct-12 11:00N 32°39' W 117°13'3 6.9
2017-Oct-12 10:30N 32°43' W 117°13'  
2017-Oct-09 16:51N 32°40' W 117°14'2 5.7
2017-Oct-09 16:29N 32°41' W 117°16'4 7.5
2017-Oct-09 16:00N 32°44' W 117°16'2 2.6
2017-Oct-09 15:09N 32°46' W 117°14'0 0.2
2017-Oct-09 14:54N 32°46' W 117°14'3 5.9
2017-Oct-09 14:19N 32°43' W 117°17'5 7.1
2017-Oct-09 13:38N 32°39' W 117°14'2 0.8
2017-Oct-09 11:26N 32°38' W 117°12'3 6.5
2017-Oct-09 11:00N 32°40' W 117°14'2 0.0
2017-Oct-07 15:42N 32°40' W 117°16'2 0.8
2017-Oct-07 12:37N 32°39' W 117°14'1 7.7
2017-Oct-07 12:29N 32°39' W 117°13'1 0.3
2017-Oct-07 11:00N 32°39' W 117°12'3 6.5
2017-Oct-07 10:29N 32°42' W 117°13'  

Dump ship's entire track history